Time;durP1;ratioP1;P1;durP2;ratioP2;P2;SDS_P1;SDS_P2;PMS_P1;PMS_P2;Temp;Humidity;BMP_temperature;BMP_pressure;BME280_temperature;BME280_humidity;BME280_pressure;Samples;Min_cycle;Max_cycle;Signal;HPM_P1;HPM_P2
2023/09/21 00:01:39;;;;;;;7.10;1.63;;;17.60;99.90;;;;;;5069593;28;20051;-76
2023/09/21 00:04:06;;;;;;;4.90;1.50;;;17.60;99.90;;;;;;5070037;28;20044;-73
2023/09/21 00:06:32;;;;;;;5.93;1.70;;;17.70;99.90;;;;;;5069751;28;20119;-76
2023/09/21 00:08:57;;;;;;;6.15;1.70;;;17.70;99.90;;;;;;5068259;28;20135;-74
2023/09/21 00:11:23;;;;;;;10.52;1.70;;;17.70;99.90;;;;;;5069360;28;20040;-74
2023/09/21 00:13:49;;;;;;;4.88;1.50;;;17.70;99.90;;;;;;5070070;28;20040;-75
2023/09/21 00:16:18;;;;;;;4.13;1.40;;;17.70;99.90;;;;;;5068880;28;20053;-73
2023/09/21 00:18:45;;;;;;;4.30;1.70;;;17.80;99.90;;;;;;5069581;28;20049;-74
2023/09/21 00:21:12;;;;;;;5.40;1.50;;;17.70;99.90;;;;;;5069081;28;20041;-75
2023/09/21 00:23:38;;;;;;;7.18;1.60;;;17.80;99.90;;;;;;5068480;28;20044;-76
2023/09/21 00:26:04;;;;;;;7.75;1.50;;;17.80;99.90;;;;;;5051136;28;20060;-75
2023/09/21 00:28:30;;;;;;;8.00;1.50;;;17.90;99.90;;;;;;5069894;28;20033;-73
2023/09/21 00:30:57;;;;;;;5.20;1.30;;;17.90;99.90;;;;;;5069935;28;20036;-74
2023/09/21 00:33:28;;;;;;;4.97;1.83;;;17.90;99.90;;;;;;5069253;28;20395;-74
2023/09/21 00:35:55;;;;;;;6.80;1.63;;;17.90;99.90;;;;;;5069540;28;20141;-74
2023/09/21 00:38:20;;;;;;;4.22;1.50;;;17.90;99.90;;;;;;5068759;28;20059;-76
2023/09/21 00:40:48;;;;;;;4.15;1.33;;;17.90;99.90;;;;;;5067680;28;20052;-76
2023/09/21 00:43:21;;;;;;;6.25;1.50;;;17.90;99.90;;;;;;5069313;28;20071;-74
2023/09/21 00:45:52;;;;;;;4.47;1.65;;;17.90;99.90;;;;;;5051395;28;20052;-73
2023/09/21 00:48:22;;;;;;;4.78;1.50;;;17.90;99.90;;;;;;5069458;28;20071;-74
2023/09/21 00:50:49;;;;;;;4.32;1.70;;;18.00;99.90;;;;;;5051033;28;20049;-74
2023/09/21 00:53:15;;;;;;;4.85;1.45;;;18.00;99.90;;;;;;5068719;28;20044;-74
2023/09/21 00:55:47;;;;;;;5.88;1.75;;;18.00;99.90;;;;;;5069485;28;20374;-74
2023/09/21 00:58:13;;;;;;;4.38;1.73;;;18.00;99.90;;;;;;5069418;28;20048;-74
2023/09/21 01:00:39;;;;;;;5.25;1.55;;;18.00;99.90;;;;;;5068240;28;20056;-73
2023/09/21 01:03:11;;;;;;;5.00;1.65;;;18.00;99.90;;;;;;5069772;28;20045;-74
2023/09/21 01:05:45;;;;;;;4.82;1.83;;;18.00;99.90;;;;;;5069049;28;20403;-77
2023/09/21 01:08:21;;;;;;;5.10;1.63;;;18.00;99.90;;;;;;5068893;28;20103;-75
2023/09/21 01:10:50;;;;;;;4.20;1.58;;;18.00;99.90;;;;;;5069241;28;20602;-73
2023/09/21 01:13:20;;;;;;;6.03;1.90;;;18.00;99.90;;;;;;5069120;28;20060;-73
2023/09/21 01:15:58;;;;;;;4.22;1.50;;;18.00;99.90;;;;;;5068877;28;20060;-75
2023/09/21 01:18:24;;;;;;;4.47;1.90;;;18.10;99.90;;;;;;5068944;28;20059;-74
2023/09/21 01:20:50;;;;;;;4.35;1.50;;;18.10;99.90;;;;;;5067764;28;20689;-75
2023/09/21 01:23:21;;;;;;;7.22;1.92;;;18.10;99.90;;;;;;5068897;28;20261;-76
2023/09/21 01:25:51;;;;;;;5.05;1.88;;;18.10;99.90;;;;;;5068753;28;20048;-74
2023/09/21 01:28:22;;;;;;;8.93;1.90;;;18.10;99.90;;;;;;5067517;28;20135;-73
2023/09/21 01:30:49;;;;;;;5.38;1.75;;;18.10;99.90;;;;;;5069159;28;20049;-76
2023/09/21 01:33:18;;;;;;;4.40;1.50;;;18.10;99.90;;;;;;5068888;28;20044;-76
2023/09/21 01:35:44;;;;;;;6.57;2.08;;;18.10;99.90;;;;;;5067159;28;20116;-74
2023/09/21 01:38:12;;;;;;;3.58;1.50;;;18.10;99.90;;;;;;5068793;28;20036;-77
2023/09/21 01:40:39;;;;;;;7.45;2.20;;;18.10;99.90;;;;;;5068587;28;20134;-75
2023/09/21 01:43:16;;;;;;;3.08;1.30;;;18.10;99.90;;;;;;5068968;28;20117;-74
2023/09/21 01:45:44;;;;;;;6.80;1.70;;;18.10;99.90;;;;;;5061058;28;20040;-74
2023/09/21 01:48:14;;;;;;;7.75;1.70;;;18.20;99.90;;;;;;5069113;28;20048;-76
2023/09/21 01:50:43;;;;;;;7.93;1.85;;;18.10;99.90;;;;;;5072281;28;20126;-73
2023/09/21 01:53:10;;;;;;;5.00;1.70;;;18.10;99.90;;;;;;5072018;28;20414;-72
2023/09/21 01:55:37;;;;;;;3.95;1.35;;;18.10;99.90;;;;;;5072450;28;20048;-73
2023/09/21 01:58:06;;;;;;;9.10;2.03;;;18.10;99.90;;;;;;5071179;28;20490;-72
2023/09/21 02:00:35;;;;;;;5.28;1.52;;;18.10;99.90;;;;;;5070907;28;20093;-76
2023/09/21 02:03:03;;;;;;;4.40;1.67;;;18.10;99.90;;;;;;5072262;28;20047;-77
2023/09/21 02:05:29;;;;;;;4.10;1.55;;;18.10;99.90;;;;;;5071886;28;20059;-74
2023/09/21 02:07:55;;;;;;;3.70;1.55;;;18.10;99.90;;;;;;5071932;28;20455;-73
2023/09/21 02:10:22;;;;;;;5.55;1.65;;;18.10;99.90;;;;;;5070728;28;20052;-75
2023/09/21 02:12:57;;;;;;;5.10;1.63;;;18.20;99.90;;;;;;5071955;28;20052;-75
2023/09/21 02:15:24;;;;;;;4.45;1.90;;;18.10;99.90;;;;;;5070696;28;20059;-78
2023/09/21 02:17:52;;;;;;;5.22;1.88;;;18.10;99.90;;;;;;5070904;28;20044;-73
2023/09/21 02:20:20;;;;;;;5.13;1.70;;;18.10;99.90;;;;;;5072212;28;20041;-75
2023/09/21 02:22:49;;;;;;;3.83;1.95;;;18.10;99.90;;;;;;5071662;28;20174;-75
2023/09/21 02:25:16;;;;;;;6.38;1.92;;;18.10;99.90;;;;;;5071797;28;20402;-75
2023/09/21 02:27:46;;;;;;;5.95;1.80;;;18.10;99.90;;;;;;5071749;28;20037;-74
2023/09/21 02:30:16;;;;;;;4.10;1.60;;;18.10;99.90;;;;;;5071780;28;20368;-75
2023/09/21 02:32:43;;;;;;;3.90;1.58;;;18.20;99.90;;;;;;5071406;28;20063;-73
2023/09/21 02:35:16;;;;;;;4.90;1.70;;;18.20;99.90;;;;;;5071688;28;20047;-74
2023/09/21 02:37:46;;;;;;;4.00;1.67;;;18.20;99.90;;;;;;5071394;28;20043;-74
2023/09/21 02:40:19;;;;;;;6.43;1.70;;;18.20;99.90;;;;;;5071377;28;20059;-75
2023/09/21 02:42:49;;;;;;;3.15;1.73;;;18.20;99.90;;;;;;5070000;28;20056;-75
2023/09/21 02:45:25;;;;;;;5.10;1.85;;;18.20;99.90;;;;;;5071639;28;20041;-75
2023/09/21 02:48:00;;;;;;;5.25;1.65;;;18.20;99.90;;;;;;5071553;28;20043;-74
2023/09/21 02:50:27;;;;;;;7.65;1.75;;;18.20;99.90;;;;;;5071075;28;20041;-75
2023/09/21 02:53:06;;;;;;;4.15;1.83;;;18.20;99.90;;;;;;5071007;28;20390;-73
2023/09/21 02:55:33;;;;;;;5.35;1.80;;;18.20;99.90;;;;;;5069707;28;20482;-73
2023/09/21 02:58:05;;;;;;;4.55;1.70;;;18.20;99.90;;;;;;5071113;28;20033;-75
2023/09/21 03:00:35;;;;;;;7.50;1.42;;;18.30;99.90;;;;;;5069795;28;20059;-77
2023/09/21 03:03:04;;;;;;;3.97;1.63;;;18.30;99.90;;;;;;5069742;28;20056;-76
2023/09/21 03:05:33;;;;;;;4.40;1.60;;;18.30;99.90;;;;;;5070558;28;20513;-75
2023/09/21 03:08:08;;;;;;;4.47;1.50;;;18.30;99.90;;;;;;5069209;28;20080;-73
2023/09/21 03:10:34;;;;;;;4.78;1.60;;;18.30;99.90;;;;;;5071019;28;20037;-75
2023/09/21 03:13:00;;;;;;;4.57;1.80;;;18.30;99.90;;;;;;5080618;28;20080;-74
2023/09/21 03:15:26;;;;;;;5.25;2.03;;;18.30;99.90;;;;;;5070721;28;20144;-76
2023/09/21 03:17:53;;;;;;;4.00;1.42;;;18.30;99.90;;;;;;5070697;28;20509;-72
2023/09/21 03:20:35;;;;;;;6.13;1.60;;;18.30;99.90;;;;;;5070585;28;20052;-75
2023/09/21 03:23:05;;;;;;;7.43;1.85;;;18.30;99.90;;;;;;5070197;28;20050;-73
2023/09/21 03:25:40;;;;;;;5.93;1.60;;;18.40;99.90;;;;;;5070761;28;20040;-74
2023/09/21 03:28:10;;;;;;;3.83;1.88;;;18.40;99.90;;;;;;5069219;28;20135;-73
2023/09/21 03:30:38;;;;;;;5.50;1.50;;;18.40;99.90;;;;;;5071341;28;20521;-72
2023/09/21 03:33:05;;;;;;;6.38;2.33;;;18.40;99.90;;;;;;5070031;28;20041;-75
2023/09/21 03:35:31;;;;;;;5.50;1.63;;;18.30;99.90;;;;;;5070867;28;20033;-74
2023/09/21 03:37:57;;;;;;;8.55;1.90;;;18.30;99.90;;;;;;5074162;28;20043;-74
2023/09/21 03:40:25;;;;;;;6.13;1.90;;;18.30;99.90;;;;;;5071006;28;20434;-76
2023/09/21 03:42:57;;;;;;;3.55;1.50;;;18.30;99.90;;;;;;5069938;28;20040;-76
2023/09/21 03:45:26;;;;;;;3.55;1.70;;;18.40;99.90;;;;;;5068412;28;20533;-73
2023/09/21 03:47:53;;;;;;;4.25;1.40;;;18.40;99.90;;;;;;5070119;28;20491;-74
2023/09/21 03:50:19;;;;;;;5.75;1.80;;;18.40;99.90;;;;;;5069944;28;20046;-73
2023/09/21 03:52:45;;;;;;;4.40;1.60;;;18.40;99.90;;;;;;5069728;28;20052;-73
2023/09/21 03:55:17;;;;;;;5.68;2.00;;;18.40;99.90;;;;;;5073436;28;20044;-73
2023/09/21 03:57:47;;;;;;;5.47;1.70;;;18.40;99.90;;;;;;5068461;28;20140;-74
2023/09/21 04:03:03;;;;;;;4.65;1.55;;;18.40;99.90;;;;;;5062827;28;20055;-73
2023/09/21 04:05:31;;;;;;;3.97;1.60;;;18.30;99.90;;;;;;5069429;28;20048;-75
2023/09/21 04:07:58;;;;;;;5.97;1.70;;;18.40;99.90;;;;;;5068605;28;20453;-77
2023/09/21 04:10:23;;;;;;;3.63;1.65;;;18.40;99.90;;;;;;5069337;28;20056;-74
2023/09/21 04:12:54;;;;;;;4.80;1.80;;;18.30;99.90;;;;;;5075961;28;20431;-74
2023/09/21 04:15:24;;;;;;;4.05;1.70;;;18.30;99.90;;;;;;5069021;28;20064;-73
2023/09/21 04:17:50;;;;;;;3.92;1.70;;;18.30;99.90;;;;;;5069655;28;20431;-74
2023/09/21 04:20:18;;;;;;;2.95;1.33;;;18.30;99.90;;;;;;5068312;28;20487;-74
2023/09/21 04:22:45;;;;;;;5.60;1.52;;;18.30;99.90;;;;;;5069760;28;20127;-75
2023/09/21 04:25:14;;;;;;;4.38;1.55;;;18.30;99.90;;;;;;5072466;28;20514;-74
2023/09/21 04:27:41;;;;;;;3.30;1.40;;;18.20;99.90;;;;;;5063291;28;20399;-74
2023/09/21 04:30:09;;;;;;;4.40;1.67;;;18.20;99.90;;;;;;5069502;28;20044;-78
2023/09/21 04:32:36;;;;;;;5.13;1.75;;;18.20;99.90;;;;;;5069510;28;20501;-72
2023/09/21 04:35:05;;;;;;;5.07;1.67;;;18.20;99.90;;;;;;5067844;28;20478;-73
2023/09/21 04:37:34;;;;;;;5.45;1.52;;;18.20;99.90;;;;;;5070442;28;20044;-73
2023/09/21 04:40:10;;;;;;;5.78;1.35;;;18.20;99.90;;;;;;5068960;28;20056;-74
2023/09/21 04:42:40;;;;;;;5.10;1.50;;;18.10;99.90;;;;;;5061856;28;20095;-74
2023/09/21 04:45:10;;;;;;;5.55;1.58;;;18.10;99.90;;;;;;5069343;28;20477;-76
2023/09/21 04:47:40;;;;;;;2.45;1.50;;;18.10;99.90;;;;;;5069217;28;20398;-73
2023/09/21 04:50:09;;;;;;;5.68;1.70;;;18.00;99.90;;;;;;5069554;28;20090;-73
2023/09/21 04:52:35;;;;;;;4.70;1.60;;;18.10;99.90;;;;;;5069724;28;20051;-74
2023/09/21 04:55:04;;;;;;;4.50;1.67;;;18.00;99.90;;;;;;5073381;28;20068;-74
2023/09/21 04:57:31;;;;;;;3.10;1.42;;;18.00;99.90;;;;;;5069038;28;20139;-73
2023/09/21 04:59:59;;;;;;;4.00;1.40;;;18.00;99.90;;;;;;5069587;28;20037;-74
2023/09/21 05:02:26;;;;;;;5.43;1.60;;;18.00;99.90;;;;;;5071476;28;20090;-74
2023/09/21 05:04:52;;;;;;;4.57;1.48;;;17.90;99.90;;;;;;5069357;28;20044;-74
2023/09/21 05:07:18;;;;;;;5.47;1.60;;;17.90;99.90;;;;;;5068481;28;20045;-74
2023/09/21 05:09:45;;;;;;;6.97;2.00;;;17.90;99.90;;;;;;5068765;28;20045;-75
2023/09/21 05:12:11;;;;;;;5.63;1.80;;;17.90;99.90;;;;;;5071552;28;20050;-76
2023/09/21 05:14:37;;;;;;;6.60;1.92;;;17.90;99.90;;;;;;5073188;28;20051;-74
2023/09/21 05:17:05;;;;;;;2.28;1.25;;;18.00;99.90;;;;;;5069108;28;20048;-74
2023/09/21 05:19:33;;;;;;;6.18;1.63;;;17.90;99.90;;;;;;5067424;28;20101;-76
2023/09/21 05:21:59;;;;;;;6.70;1.75;;;17.90;99.90;;;;;;5068769;28;20047;-73
2023/09/21 05:24:25;;;;;;;6.03;1.40;;;17.90;99.90;;;;;;5075529;28;20483;-75
2023/09/21 05:26:52;;;;;;;3.45;1.35;;;17.90;99.90;;;;;;5072803;28;20049;-75
2023/09/21 05:29:22;;;;;;;4.60;1.42;;;17.90;99.90;;;;;;5072610;28;20040;-74
2023/09/21 05:31:48;;;;;;;4.60;1.58;;;17.90;99.90;;;;;;5071475;28;20053;-75
2023/09/21 05:34:14;;;;;;;3.65;1.70;;;17.90;99.90;;;;;;5072614;28;20075;-74
2023/09/21 05:36:40;;;;;;;4.63;1.42;;;17.90;99.90;;;;;;5072811;28;20083;-74
2023/09/21 05:39:08;;;;;;;4.03;1.40;;;17.90;99.90;;;;;;5072365;28;20056;-73
2023/09/21 05:41:34;;;;;;;3.97;1.30;;;17.80;99.90;;;;;;5071552;28;20127;-74
2023/09/21 05:44:00;;;;;;;2.85;1.52;;;17.80;99.90;;;;;;5072824;28;20048;-76
2023/09/21 05:46:26;;;;;;;4.18;1.50;;;17.80;99.90;;;;;;5072955;28;20048;-75
2023/09/21 05:48:51;;;;;;;4.80;1.75;;;17.80;99.90;;;;;;5071536;28;20141;-74
2023/09/21 05:51:17;;;;;;;5.55;1.90;;;17.80;99.90;;;;;;5071134;28;20384;-73
2023/09/21 05:53:43;;;;;;;6.85;1.88;;;17.80;99.90;;;;;;5069785;28;20067;-74
2023/09/21 05:56:09;;;;;;;3.75;1.60;;;17.80;99.90;;;;;;5071077;28;20174;-73
2023/09/21 05:58:36;;;;;;;5.15;1.77;;;17.80;99.90;;;;;;5072644;28;20375;-74
2023/09/21 06:01:02;;;;;;;6.63;1.77;;;18.20;99.90;;;;;;5072055;28;20082;-74
2023/09/21 06:03:28;;;;;;;3.88;1.58;;;17.80;99.90;;;;;;5071417;28;20056;-75
2023/09/21 06:05:55;;;;;;;4.72;1.50;;;17.80;99.90;;;;;;5072633;28;20051;-74
2023/09/21 06:08:20;;;;;;;3.80;1.60;;;17.80;99.90;;;;;;5072236;28;20051;-74
2023/09/21 06:10:46;;;;;;;5.05;1.60;;;17.80;99.90;;;;;;5071964;28;20044;-75
2023/09/21 06:13:12;;;;;;;4.78;1.60;;;17.80;99.90;;;;;;5071972;28;20562;-74
2023/09/21 06:15:48;;;;;;;5.10;2.00;;;17.80;99.90;;;;;;5072139;28;20395;-76
2023/09/21 06:18:17;;;;;;;3.00;1.60;;;17.80;99.90;;;;;;5064949;28;20044;-74
2023/09/21 06:20:46;;;;;;;4.68;1.90;;;17.80;99.90;;;;;;5072142;28;20052;-73
2023/09/21 06:23:11;;;;;;;3.78;2.00;;;17.80;99.90;;;;;;5071487;28;20048;-73
2023/09/21 06:25:37;;;;;;;4.10;1.55;;;17.70;99.90;;;;;;5071819;28;20086;-76
2023/09/21 06:28:03;;;;;;;6.70;1.70;;;17.70;99.90;;;;;;5071742;28;20372;-73
2023/09/21 06:30:29;;;;;;;5.80;1.67;;;17.70;99.90;;;;;;5071768;28;20045;-73
2023/09/21 06:32:55;;;;;;;6.32;1.70;;;17.70;99.90;;;;;;5071351;28;20450;-74
2023/09/21 06:35:24;;;;;;;5.40;1.60;;;17.70;99.90;;;;;;5070552;28;21395;-74
2023/09/21 06:37:54;;;;;;;6.53;1.70;;;17.60;99.90;;;;;;5071524;28;20036;-74
2023/09/21 06:40:26;;;;;;;4.28;1.83;;;17.60;99.90;;;;;;5071415;28;20102;-74
2023/09/21 06:42:52;;;;;;;4.70;1.98;;;17.60;99.90;;;;;;5071220;28;20044;-74
2023/09/21 06:45:19;;;;;;;7.95;1.95;;;17.60;99.90;;;;;;5070754;28;20063;-74
2023/09/21 06:47:47;;;;;;;4.57;1.95;;;17.60;99.90;;;;;;5071111;28;20052;-74
2023/09/21 06:50:14;;;;;;;3.80;1.70;;;17.50;99.90;;;;;;5053340;28;20487;-74
2023/09/21 06:52:40;;;;;;;5.38;2.42;;;17.50;99.90;;;;;;5069694;28;20098;-74
2023/09/21 06:55:07;;;;;;;3.78;1.90;;;17.60;99.90;;;;;;5071120;28;20490;-74
2023/09/21 06:57:34;;;;;;;5.53;1.73;;;17.50;99.90;;;;;;5070594;28;20040;-75
2023/09/21 07:00:01;;;;;;;4.90;1.60;;;17.50;99.90;;;;;;5071201;28;20441;-73
2023/09/21 07:02:27;;;;;;;9.10;1.90;;;17.50;99.90;;;;;;5071060;28;20123;-75
2023/09/21 07:04:53;;;;;;;10.23;1.90;;;17.50;99.90;;;;;;5069878;28;20578;-75
2023/09/21 07:07:20;;;;;;;4.88;1.75;;;17.50;99.90;;;;;;5070540;28;20127;-73
2023/09/21 07:09:46;;;;;;;4.03;1.90;;;17.40;99.90;;;;;;5071027;28;20394;-74
2023/09/21 07:12:12;;;;;;;5.50;1.70;;;17.40;99.90;;;;;;5070752;28;20081;-73
2023/09/21 07:14:38;;;;;;;4.85;1.92;;;17.40;99.90;;;;;;5070862;28;20044;-74
2023/09/21 07:17:05;;;;;;;3.40;1.52;;;17.40;99.90;;;;;;5070200;28;20063;-73
2023/09/21 07:19:31;;;;;;;6.53;2.17;;;17.40;99.90;;;;;;5076450;28;20040;-74
2023/09/21 07:21:58;;;;;;;5.57;1.98;;;17.40;99.90;;;;;;5072326;28;20044;-73
2023/09/21 07:24:24;;;;;;;3.10;1.65;;;17.40;99.90;;;;;;5070822;28;20053;-74
2023/09/21 07:26:49;;;;;;;3.85;1.70;;;17.30;99.90;;;;;;5070171;28;20047;-74
2023/09/21 07:29:17;;;;;;;4.28;1.90;;;17.40;99.90;;;;;;5070630;28;20045;-74
2023/09/21 07:31:43;;;;;;;9.45;1.90;;;17.30;99.90;;;;;;5070738;28;20117;-75
2023/09/21 07:34:09;;;;;;;3.28;1.90;;;17.40;99.90;;;;;;5069012;28;20495;-73
2023/09/21 07:36:36;;;;;;;4.30;1.85;;;17.30;99.90;;;;;;5070119;28;20035;-74
2023/09/21 07:39:03;;;;;;;3.63;1.92;;;17.30;99.90;;;;;;5069184;28;20137;-74
2023/09/21 07:41:29;;;;;;;4.03;1.85;;;17.30;99.90;;;;;;5070063;28;20788;-74
2023/09/21 07:43:55;;;;;;;6.82;1.90;;;17.30;99.90;;;;;;5070148;28;20045;-74
2023/09/21 07:46:21;;;;;;;6.05;1.92;;;17.30;99.90;;;;;;5069717;28;20117;-74
2023/09/21 07:48:49;;;;;;;4.30;1.83;;;17.20;99.90;;;;;;5070897;28;20518;-73
2023/09/21 07:51:15;;;;;;;10.38;2.20;;;17.30;99.90;;;;;;5070213;28;20040;-74
2023/09/21 07:53:41;;;;;;;6.88;2.30;;;17.20;99.90;;;;;;5069382;28;20908;-73
2023/09/21 07:56:12;;;;;;;4.80;1.67;;;17.20;99.90;;;;;;5070278;28;20040;-75
2023/09/21 07:58:37;;;;;;;6.90;2.05;;;17.20;99.90;;;;;;5068138;28;20559;-73
2023/09/21 08:01:03;;;;;;;7.78;2.40;;;17.20;99.90;;;;;;5069627;28;20040;-74
2023/09/21 08:03:29;;;;;;;4.03;2.25;;;17.20;99.90;;;;;;5070218;28;20119;-75
2023/09/21 08:05:59;;;;;;;6.20;2.45;;;17.20;99.90;;;;;;5070140;28;20036;-74
2023/09/21 08:08:25;;;;;;;7.78;2.80;;;17.20;99.90;;;;;;5065774;28;20056;-73
2023/09/21 08:10:52;;;;;;;7.90;2.35;;;17.20;99.90;;;;;;5069970;28;20048;-74
2023/09/21 08:13:19;;;;;;;7.13;2.10;;;17.20;99.90;;;;;;5067723;28;20051;-74
2023/09/21 08:15:46;;;;;;;3.67;2.33;;;17.30;99.90;;;;;;5070047;28;20157;-77
2023/09/21 08:18:12;;;;;;;6.05;2.50;;;17.20;99.90;;;;;;5069811;28;20162;-73
2023/09/21 08:20:40;;;;;;;4.15;2.38;;;17.10;99.90;;;;;;5068564;28;20078;-74
2023/09/21 08:23:07;;;;;;;5.68;2.70;;;17.10;99.90;;;;;;5069489;28;20049;-75
2023/09/21 08:25:36;;;;;;;5.13;2.35;;;17.10;99.90;;;;;;5069680;28;20449;-73
2023/09/21 08:28:05;;;;;;;5.53;2.22;;;17.10;99.90;;;;;;5069283;28;20101;-73
2023/09/21 08:30:31;;;;;;;6.00;2.42;;;17.00;99.90;;;;;;5069810;28;20043;-73
2023/09/21 08:32:58;;;;;;;6.13;2.75;;;17.00;99.90;;;;;;5068836;28;20044;-75
2023/09/21 08:35:24;;;;;;;4.40;2.47;;;16.90;99.90;;;;;;5069409;28;20041;-76
2023/09/21 08:37:50;;;;;;;6.00;2.50;;;17.00;99.90;;;;;;5069563;28;20041;-75
2023/09/21 08:40:17;;;;;;;7.07;2.42;;;17.00;99.90;;;;;;5069660;28;20447;-73
2023/09/21 08:42:46;;;;;;;5.68;2.83;;;17.00;99.90;;;;;;5069591;28;20113;-76
2023/09/21 08:45:13;;;;;;;9.07;3.03;;;16.90;99.90;;;;;;5070014;28;20041;-74
2023/09/21 08:47:40;;;;;;;4.15;2.00;;;16.90;99.90;;;;;;5069735;28;20415;-75
2023/09/21 08:50:09;;;;;;;6.93;2.30;;;16.90;99.90;;;;;;5069318;28;20685;-74
2023/09/21 08:52:36;;;;;;;2.20;0.90;;;16.80;99.90;;;;;;5069637;28;20037;-77
2023/09/21 08:55:02;;;;;;;2.25;1.00;;;16.70;99.90;;;;;;5069507;28;20041;-72
2023/09/21 08:57:28;;;;;;;2.67;0.80;;;16.60;99.90;;;;;;5069491;28;20036;-74
2023/09/21 09:00:00;;;;;;;1.67;0.73;;;16.50;99.90;;;;;;5072736;28;20119;-74
2023/09/21 09:02:27;;;;;;;1.13;0.70;;;16.50;99.90;;;;;;5073418;28;20040;-76
2023/09/21 09:04:54;;;;;;;2.08;0.80;;;16.40;99.90;;;;;;5063399;28;20044;-74
2023/09/21 09:07:20;;;;;;;2.72;0.82;;;16.30;99.90;;;;;;5071879;28;20042;-74
2023/09/21 09:09:46;;;;;;;2.45;0.70;;;16.20;99.90;;;;;;5073249;28;20044;-74
2023/09/21 09:12:24;;;;;;;2.72;0.60;;;16.30;99.90;;;;;;5071718;28;20048;-75
2023/09/21 09:14:51;;;;;;;1.55;0.80;;;16.10;99.90;;;;;;5072811;28;20045;-75
2023/09/21 09:17:17;;;;;;;2.83;0.82;;;16.00;99.90;;;;;;5073209;28;20056;-73
2023/09/21 09:19:46;;;;;;;1.75;0.60;;;16.00;99.90;;;;;;5073107;28;20055;-75
2023/09/21 09:22:13;;;;;;;3.55;0.70;;;16.00;99.90;;;;;;5064828;28;20496;-73
2023/09/21 09:24:38;;;;;;;1.98;0.75;;;15.90;99.90;;;;;;5073167;28;20052;-75
2023/09/21 09:27:04;;;;;;;2.03;0.80;;;16.00;99.90;;;;;;5072736;28;20559;-77
2023/09/21 09:29:30;;;;;;;1.98;0.68;;;15.90;99.90;;;;;;5072833;28;20047;-75
2023/09/21 09:31:56;;;;;;;0.95;0.43;;;15.80;99.90;;;;;;5072747;28;20410;-75
2023/09/21 09:34:22;;;;;;;2.05;0.57;;;15.90;99.90;;;;;;5072549;28;20052;-74
2023/09/21 09:36:51;;;;;;;2.17;0.77;;;15.80;99.90;;;;;;5072684;28;20040;-74
2023/09/21 09:39:18;;;;;;;1.90;0.60;;;15.90;99.90;;;;;;5072764;28;20044;-75
2023/09/21 09:41:50;;;;;;;1.98;0.80;;;15.80;99.90;;;;;;5072599;28;20419;-74
2023/09/21 09:44:24;;;;;;;3.65;0.90;;;15.70;99.90;;;;;;5070955;28;20056;-75
2023/09/21 09:46:55;;;;;;;1.38;0.60;;;15.70;99.90;;;;;;5072271;28;20036;-74
2023/09/21 09:49:25;;;;;;;2.28;0.70;;;15.90;99.90;;;;;;5072300;28;20513;-75
2023/09/21 09:51:54;;;;;;;1.27;0.50;;;16.20;99.90;;;;;;5072638;28;20037;-75
2023/09/21 09:54:21;;;;;;;3.25;0.70;;;15.80;99.90;;;;;;5070982;28;20495;-75
2023/09/21 09:56:48;;;;;;;1.35;0.60;;;15.70;99.90;;;;;;5064349;28;20595;-74
2023/09/21 09:59:17;;;;;;;1.42;0.60;;;15.80;99.90;;;;;;5072460;28;20171;-74
2023/09/21 10:01:44;;;;;;;1.95;0.60;;;15.80;99.90;;;;;;5072206;28;20052;-75
2023/09/21 10:04:10;;;;;;;1.92;0.50;;;15.80;99.90;;;;;;5070916;28;20055;-74
2023/09/21 10:06:36;;;;;;;2.08;0.63;;;15.90;99.90;;;;;;5072175;28;20037;-73
2023/09/21 10:09:10;;;;;;;1.67;0.60;;;15.80;99.90;;;;;;5072243;28;20040;-74
2023/09/21 10:11:42;;;;;;;1.10;0.45;;;15.80;99.90;;;;;;5072394;28;20048;-74
2023/09/21 10:14:11;;;;;;;1.48;0.60;;;15.90;99.90;;;;;;5064112;28;20414;-74
2023/09/21 10:16:39;;;;;;;2.28;0.70;;;15.90;99.90;;;;;;5072185;28;20128;-75
2023/09/21 10:19:14;;;;;;;1.75;0.50;;;15.90;99.90;;;;;;5070829;28;20088;-75
2023/09/21 10:21:43;;;;;;;0.85;0.47;;;16.00;99.90;;;;;;5072074;28;20044;-75
2023/09/21 10:24:16;;;;;;;2.78;0.50;;;16.00;99.90;;;;;;5071862;28;20467;-74
2023/09/21 10:26:49;;;;;;;2.30;0.70;;;16.10;99.90;;;;;;5070353;28;20506;-74
2023/09/21 10:29:19;;;;;;;3.50;0.60;;;16.00;99.90;;;;;;5071507;28;20056;-76
2023/09/21 10:31:46;;;;;;;1.92;0.70;;;16.00;99.90;;;;;;5072045;28;20041;-75
2023/09/21 10:34:19;;;;;;;1.70;0.50;;;16.00;99.90;;;;;;5070180;28;20052;-74
2023/09/21 10:36:51;;;;;;;1.20;0.60;;;16.10;99.90;;;;;;5070658;28;20056;-74
2023/09/21 10:39:24;;;;;;;1.45;0.50;;;16.10;99.90;;;;;;5071532;28;20044;-73
2023/09/21 10:41:52;;;;;;;1.60;0.43;;;16.10;99.90;;;;;;5071408;28;20048;-74
2023/09/21 10:44:52;;;;;;;2.58;0.80;;;16.10;99.90;;;;;;5071279;28;20497;-74
2023/09/21 10:47:24;;;;;;;4.72;1.58;;;16.10;99.90;;;;;;5071343;28;20479;-74
2023/09/21 10:49:51;;;;;;;1.88;0.88;;;16.10;99.90;;;;;;5071296;28;20471;-74
2023/09/21 10:52:17;;;;;;;2.72;1.23;;;16.50;99.90;;;;;;5070346;28;20044;-72
2023/09/21 10:54:43;;;;;;;2.85;0.60;;;16.20;99.90;;;;;;5069868;28;20036;-74
2023/09/21 10:57:11;;;;;;;1.38;0.50;;;16.20;99.90;;;;;;5071191;28;20040;-72
2023/09/21 10:59:37;;;;;;;3.47;0.82;;;16.20;99.90;;;;;;5071099;28;20056;-74
2023/09/21 11:02:03;;;;;;;2.05;0.80;;;16.30;99.90;;;;;;5071109;28;20051;-74
2023/09/21 11:04:28;;;;;;;2.38;0.80;;;16.60;99.90;;;;;;5071065;28;20044;-75
2023/09/21 11:06:54;;;;;;;3.20;0.73;;;16.40;99.90;;;;;;5069932;28;20052;-75
2023/09/21 11:09:20;;;;;;;3.85;0.70;;;16.50;99.90;;;;;;5071466;28;20040;-74
2023/09/21 11:11:46;;;;;;;3.10;0.82;;;16.50;99.90;;;;;;5071078;28;20072;-75
2023/09/21 11:14:12;;;;;;;1.60;0.60;;;16.50;99.90;;;;;;5068788;28;20053;-73
2023/09/21 11:16:38;;;;;;;4.03;0.60;;;16.40;99.90;;;;;;5070908;28;20060;-74
2023/09/21 11:19:05;;;;;;;2.65;0.70;;;16.50;99.90;;;;;;5070703;28;20051;-77
2023/09/21 11:21:31;;;;;;;1.25;0.70;;;16.40;99.90;;;;;;5070263;28;20044;-75
2023/09/21 11:23:58;;;;;;;1.95;0.93;;;16.70;99.90;;;;;;5070882;28;20055;-73
2023/09/21 11:26:26;;;;;;;2.03;0.60;;;16.90;99.90;;;;;;5070726;28;20053;-75
2023/09/21 11:28:58;;;;;;;3.58;0.80;;;16.50;99.90;;;;;;5070722;28;20127;-74
2023/09/21 11:31:27;;;;;;;2.97;0.80;;;16.60;99.90;;;;;;5062793;28;20055;-76
2023/09/21 11:33:53;;;;;;;1.20;0.60;;;16.60;99.90;;;;;;5069692;28;20052;-75
2023/09/21 11:36:20;;;;;;;1.80;0.80;;;16.60;99.90;;;;;;5070605;28;20044;-75
2023/09/21 11:38:46;;;;;;;3.45;0.75;;;16.60;99.90;;;;;;5069335;28;20048;-75
2023/09/21 11:41:14;;;;;;;2.42;0.93;;;16.60;99.90;;;;;;5070323;28;20130;-74
2023/09/21 11:43:42;;;;;;;2.20;1.08;;;16.60;99.90;;;;;;5068986;28;20056;-74
2023/09/21 11:46:09;;;;;;;1.40;0.80;;;16.60;99.90;;;;;;5069258;28;20083;-73
2023/09/21 11:48:35;;;;;;;1.40;0.80;;;16.60;99.90;;;;;;5070044;28;20093;-74
2023/09/21 11:51:04;;;;;;;1.38;0.80;;;16.50;99.90;;;;;;5070353;28;20049;-75
2023/09/21 11:53:31;;;;;;;2.47;0.80;;;16.50;99.90;;;;;;5070163;28;20054;-74
2023/09/21 11:55:57;;;;;;;2.70;0.82;;;16.50;99.90;;;;;;5069068;28;20124;-73
2023/09/21 11:58:22;;;;;;;1.48;0.90;;;16.50;99.90;;;;;;5069878;28;20124;-75
2023/09/21 12:01:15;;;;;;;2.53;0.80;;;16.40;99.90;;;;;;5068741;28;20086;-74
2023/09/21 12:03:40;;;;;;;1.90;0.70;;;16.40;99.90;;;;;;5068719;28;20505;-77
2023/09/21 12:06:06;;;;;;;1.42;0.85;;;16.50;99.90;;;;;;5068884;28;20050;-77
2023/09/21 12:08:32;;;;;;;2.55;1.05;;;16.40;99.90;;;;;;5069546;28;20032;-75
2023/09/21 12:10:58;;;;;;;2.78;0.88;;;16.20;99.90;;;;;;5070030;28;20864;-75
2023/09/21 12:13:23;;;;;;;2.63;1.15;;;16.60;99.90;;;;;;5070128;28;20044;-74
2023/09/21 12:15:55;;;;;;;3.05;1.10;;;16.30;99.90;;;;;;5069649;28;20396;-72
2023/09/21 12:18:21;;;;;;;2.67;1.00;;;16.40;99.90;;;;;;5070051;28;20052;-74
2023/09/21 12:20:49;;;;;;;3.30;1.15;;;16.30;99.90;;;;;;5069954;28;20094;-74
2023/09/21 12:23:15;;;;;;;1.83;1.00;;;16.40;99.90;;;;;;5069913;28;20440;-75
2023/09/21 12:25:41;;;;;;;2.28;0.90;;;16.50;99.90;;;;;;5069949;28;20494;-74
2023/09/21 12:28:09;;;;;;;1.83;0.80;;;16.50;99.90;;;;;;5069336;28;20084;-73
2023/09/21 12:30:37;;;;;;;1.00;0.60;;;16.60;99.90;;;;;;5069821;28;20446;-75
2023/09/21 12:33:03;;;;;;;2.05;0.80;;;16.50;99.90;;;;;;5068398;28;20044;-74
2023/09/21 12:35:30;;;;;;;1.63;0.50;;;16.60;99.90;;;;;;5069369;28;20115;-73
2023/09/21 12:37:56;;;;;;;2.17;0.52;;;16.60;99.90;;;;;;5069816;28;20032;-74
2023/09/21 12:40:22;;;;;;;1.63;0.73;;;16.60;99.90;;;;;;5069406;28;20097;-73
2023/09/21 12:42:48;;;;;;;1.02;0.60;;;16.60;99.90;;;;;;5069826;28;20048;-75
2023/09/21 12:45:17;;;;;;;1.70;0.65;;;16.70;99.90;;;;;;5069384;28;20059;-73
2023/09/21 12:47:44;;;;;;;1.23;0.52;;;16.70;99.90;;;;;;5069550;28;20048;-76
2023/09/21 12:50:11;;;;;;;2.65;1.10;;;16.70;99.90;;;;;;5069484;28;20083;-74
2023/09/21 12:52:37;;;;;;;1.20;0.55;;;16.80;99.90;;;;;;5069321;28;20633;-73